Bement, Illinois
Current Conditions -  °F | °C
As of 8:54 AM on Wednesday 26 Nov 2014 (Local Time) from KDEC Reporting Station
Haze Haze  
Wind Chill: 16°   Ceiling: Unl
Heat Index: 27°   Visibility: 6mi
Dew Point: 24°   Wind: 14mph
Humidity: 89%   Direction: 140°SE
Pressure: 30.12"   Gusts: NA
Location:  39.92°N, 88.57°W
Report Text: KDEC 261454Z 14012KT 6SM BR FEW008 SCT110 M03/M04 A3012 RMK AO2 SLP208 T10281044 58001
Loading
Personal Weather Stations






























Interactive Weather Map New forecast layout! Learn more

10-Day Weather Forecast

Advertisements
Track Severe Weather on mobile